createdAt,value
2024-03-12T00:01:35.642Z,2.80
2024-03-12T00:04:43.480Z,2.63
2024-03-12T00:07:52.446Z,3.22
2024-03-12T00:11:03.515Z,2.72
2024-03-12T00:14:11.481Z,2.78
2024-03-12T00:17:19.551Z,2.85
2024-03-12T00:20:33.470Z,2.88
2024-03-12T00:23:41.435Z,3.22
2024-03-12T00:26:52.421Z,2.75
2024-03-12T00:30:00.504Z,3.00
2024-03-12T00:33:09.558Z,2.72
2024-03-12T00:36:18.485Z,2.90
2024-03-12T00:39:26.546Z,2.70
2024-03-12T00:42:37.583Z,2.67
2024-03-12T00:45:48.514Z,2.80
2024-03-12T00:48:57.538Z,2.47
2024-03-12T00:52:06.586Z,2.67
2024-03-12T00:55:15.549Z,2.70
2024-03-12T00:58:25.556Z,2.80
2024-03-12T01:01:34.622Z,3.08
2024-03-12T01:04:42.481Z,2.88
2024-03-12T01:07:50.529Z,2.55
2024-03-12T01:10:59.583Z,2.83
2024-03-12T01:14:13.485Z,2.80
2024-03-12T01:17:20.505Z,2.97
2024-03-12T01:20:30.513Z,2.65
2024-03-12T01:23:38.543Z,2.42
2024-03-12T01:26:47.522Z,2.72
2024-03-12T01:29:57.606Z,2.83
2024-03-12T01:33:08.069Z,2.67
2024-03-12T01:36:28.551Z,2.85
2024-03-12T01:39:37.761Z,2.70
2024-03-12T01:42:46.563Z,3.08
2024-03-12T01:45:56.627Z,2.58
2024-03-12T01:49:04.875Z,2.78
2024-03-12T01:52:06.898Z,2.42
2024-03-12T01:55:14.772Z,2.42
2024-03-12T01:58:26.574Z,2.30
2024-03-12T02:01:39.592Z,2.78
2024-03-12T02:04:50.534Z,3.13
2024-03-12T02:08:02.617Z,2.70
2024-03-12T02:11:10.571Z,3.13
2024-03-12T02:14:21.086Z,2.55
2024-03-12T02:17:32.587Z,2.92
2024-03-12T02:20:40.550Z,2.97
2024-03-12T02:23:56.506Z,3.03
2024-03-12T02:27:03.609Z,3.20
2024-03-12T02:30:11.828Z,3.25
2024-03-12T02:33:22.639Z,3.10
2024-03-12T02:36:30.621Z,2.78
2024-03-12T02:39:40.600Z,3.05
2024-03-12T02:42:48.724Z,3.00
2024-03-12T02:45:57.636Z,2.83
2024-03-12T02:49:05.702Z,2.70
2024-03-12T02:52:13.561Z,2.85
2024-03-12T02:55:22.536Z,3.00
2024-03-12T02:58:34.551Z,2.90
2024-03-12T03:01:41.614Z,3.22
2024-03-12T03:04:50.529Z,2.60
2024-03-12T03:07:57.600Z,2.88
2024-03-12T03:11:08.623Z,3.10
2024-03-12T03:14:16.577Z,3.10
2024-03-12T03:17:24.513Z,3.28
2024-03-12T03:20:31.461Z,3.15
2024-03-12T03:23:37.570Z,3.13
2024-03-12T03:26:46.490Z,3.00
2024-03-12T03:29:52.451Z,2.60
2024-03-12T03:32:59.543Z,2.65
2024-03-12T03:36:05.470Z,3.00
2024-03-12T03:39:14.493Z,3.20
2024-03-12T03:42:24.526Z,2.58
2024-03-12T03:45:32.536Z,2.75
2024-03-12T03:48:39.579Z,3.00
2024-03-12T03:51:46.520Z,3.10
2024-03-12T03:54:54.478Z,2.95
2024-03-12T03:58:02.581Z,2.90
2024-03-12T04:01:10.539Z,2.78
2024-03-12T04:04:24.548Z,2.63
2024-03-12T04:07:33.344Z,2.92
2024-03-12T04:10:39.387Z,3.63
2024-03-12T04:13:48.313Z,2.85
2024-03-12T04:16:55.102Z,2.92
2024-03-12T04:20:01.385Z,3.05
2024-03-12T04:23:10.433Z,2.50
2024-03-12T04:26:17.320Z,2.80
2024-03-12T04:29:25.371Z,2.92
2024-03-12T04:32:32.385Z,3.00
2024-03-12T04:35:38.392Z,2.92
2024-03-12T04:38:45.424Z,2.53
2024-03-12T04:41:52.448Z,2.83
2024-03-12T04:45:02.509Z,2.83
2024-03-12T04:48:09.376Z,2.42
2024-03-12T04:51:16.398Z,2.17
2024-03-12T04:54:23.405Z,2.70
2024-03-12T04:57:29.447Z,2.53
2024-03-12T05:00:38.457Z,2.88
2024-03-12T05:03:46.397Z,2.75
2024-03-12T05:06:53.506Z,2.70
2024-03-12T05:10:02.505Z,2.72
2024-03-12T05:13:11.511Z,2.50
2024-03-12T05:16:24.294Z,2.70
2024-03-12T05:19:33.386Z,2.40
2024-03-12T05:22:33.433Z,2.65
2024-03-12T05:25:48.460Z,2.50
2024-03-12T05:28:56.444Z,2.70
2024-03-12T05:32:04.463Z,2.63
2024-03-12T05:35:14.512Z,2.95
2024-03-12T05:38:31.415Z,2.83
2024-03-12T05:41:34.657Z,2.85
2024-03-12T05:44:50.380Z,2.90
2024-03-12T05:48:15.386Z,3.13
2024-03-12T05:51:22.458Z,2.50
2024-03-12T05:54:29.460Z,2.85
2024-03-12T05:57:37.562Z,2.70
2024-03-12T06:00:44.670Z,2.83
2024-03-12T06:03:54.376Z,2.70
2024-03-12T06:07:00.432Z,3.20
2024-03-12T06:10:06.709Z,3.03
2024-03-12T06:13:13.474Z,2.47
2024-03-12T06:16:21.397Z,2.90
2024-03-12T06:19:30.518Z,2.47
2024-03-12T06:22:36.489Z,2.88
2024-03-12T06:25:43.486Z,2.70
2024-03-12T06:28:50.430Z,2.90
2024-03-12T06:31:56.523Z,3.00
2024-03-12T06:35:06.469Z,2.72
2024-03-12T06:38:15.443Z,2.67
2024-03-12T06:41:22.529Z,2.70
2024-03-12T06:44:31.451Z,2.20
2024-03-12T06:47:38.639Z,2.53
2024-03-12T06:50:41.331Z,2.80
2024-03-12T06:53:46.621Z,2.58
2024-03-12T06:56:55.449Z,2.30
2024-03-12T07:00:02.578Z,2.20
2024-03-12T07:03:12.447Z,2.58
2024-03-12T07:06:21.479Z,2.88
2024-03-12T07:09:35.484Z,2.20
2024-03-12T07:12:42.481Z,2.40
2024-03-12T07:15:50.546Z,2.15
2024-03-12T07:18:57.532Z,2.03
2024-03-12T07:22:06.600Z,2.47
2024-03-12T07:25:15.572Z,2.65
2024-03-12T07:28:24.682Z,2.65
2024-03-12T07:31:31.521Z,2.10
2024-03-12T07:34:39.545Z,2.20
2024-03-12T07:37:50.480Z,2.33
2024-03-12T07:40:56.510Z,2.80
2024-03-12T07:44:03.501Z,2.40
2024-03-12T07:47:12.527Z,2.97
2024-03-12T07:50:20.523Z,2.90
2024-03-12T07:53:30.483Z,2.38
2024-03-12T07:56:36.508Z,2.78
2024-03-12T07:59:43.581Z,2.83
2024-03-12T08:02:50.477Z,2.90
2024-03-12T08:05:57.519Z,2.72
2024-03-12T08:09:05.637Z,2.60
2024-03-12T08:12:14.140Z,2.35
2024-03-12T08:15:22.539Z,2.20
2024-03-12T08:18:31.655Z,2.42
2024-03-12T08:21:43.531Z,2.83
2024-03-12T08:24:53.573Z,2.13
2024-03-12T08:28:00.606Z,2.10
2024-03-12T08:31:11.637Z,2.40
2024-03-12T08:34:26.593Z,2.50
2024-03-12T08:37:35.445Z,6.78
2024-03-12T08:40:46.587Z,7.30
2024-03-12T08:43:53.577Z,10.07
2024-03-12T08:47:00.566Z,6.45
2024-03-12T08:50:07.600Z,3.38
2024-03-12T08:53:15.677Z,2.70
2024-03-12T08:56:24.515Z,2.17
2024-03-12T08:59:32.638Z,2.00
2024-03-12T09:02:39.534Z,2.20
2024-03-12T09:05:46.554Z,2.13
2024-03-12T09:08:54.558Z,2.75
2024-03-12T09:12:03.593Z,2.67
2024-03-12T09:15:09.539Z,2.60
2024-03-12T09:18:16.569Z,2.95
2024-03-12T09:21:16.727Z,2.55
2024-03-12T09:24:18.597Z,2.63
2024-03-12T09:27:27.601Z,3.05
2024-03-12T09:30:35.246Z,4.13
2024-03-12T09:33:42.642Z,3.40
2024-03-12T09:36:48.667Z,3.22
2024-03-12T09:39:55.709Z,3.35
2024-03-12T09:43:06.885Z,2.85
2024-03-12T09:46:14.870Z,3.35
2024-03-12T09:49:23.576Z,2.95
2024-03-12T09:52:29.573Z,3.33
2024-03-12T09:55:35.593Z,2.92
2024-03-12T09:58:45.628Z,2.90
2024-03-12T10:01:51.658Z,3.22
2024-03-12T10:04:57.587Z,2.80
2024-03-12T10:08:16.032Z,3.20
2024-03-12T10:11:17.636Z,3.33
2024-03-12T10:14:31.673Z,2.83
2024-03-12T10:17:41.626Z,3.00
2024-03-12T10:20:47.612Z,2.58
2024-03-12T10:23:47.570Z,3.38
2024-03-12T10:26:48.647Z,2.67
2024-03-12T10:29:58.643Z,2.70
2024-03-12T10:33:04.666Z,2.85
2024-03-12T10:36:11.794Z,2.90
2024-03-12T10:39:21.617Z,2.65
2024-03-12T10:42:32.578Z,2.78
2024-03-12T10:45:41.723Z,2.90
2024-03-12T10:48:49.714Z,2.92
2024-03-12T10:51:57.728Z,2.88
2024-03-12T10:55:10.740Z,2.75
2024-03-12T10:58:20.708Z,2.50
2024-03-12T11:01:28.727Z,3.00
2024-03-12T11:04:34.613Z,2.88
2024-03-12T11:07:40.883Z,2.60
2024-03-12T11:10:47.824Z,2.60
2024-03-12T11:13:54.633Z,2.55
2024-03-12T11:17:03.855Z,2.80
2024-03-12T11:20:15.712Z,2.10
2024-03-12T11:23:23.637Z,3.00
2024-03-12T11:29:49.567Z,2.72
2024-03-12T11:32:51.773Z,3.40
2024-03-12T11:35:58.665Z,2.40
2024-03-12T11:39:05.632Z,2.50
2024-03-12T11:42:34.671Z,2.50
2024-03-12T11:45:55.818Z,2.50
2024-03-12T11:49:06.685Z,2.80
2024-03-12T11:52:15.685Z,2.85
2024-03-12T11:55:21.690Z,2.30
2024-03-12T11:58:29.664Z,2.67
2024-03-12T12:01:38.790Z,2.60
2024-03-12T12:04:52.888Z,2.63
2024-03-12T12:08:00.706Z,2.45
2024-03-12T12:11:18.745Z,2.60
2024-03-12T12:14:29.428Z,2.33
2024-03-12T12:17:47.704Z,2.80
2024-03-12T12:20:55.768Z,2.50
2024-03-12T12:24:05.318Z,2.22
2024-03-12T12:27:12.703Z,2.50
2024-03-12T12:30:21.019Z,2.10
2024-03-12T12:33:28.694Z,2.42
2024-03-12T12:36:38.711Z,2.90
2024-03-12T12:39:52.740Z,3.30
2024-03-12T12:43:02.773Z,2.45
2024-03-12T12:46:08.782Z,2.78
2024-03-12T12:49:17.713Z,3.03
2024-03-12T12:52:27.885Z,2.67
2024-03-12T12:55:34.716Z,2.72
2024-03-12T12:58:42.711Z,2.60
2024-03-12T13:01:49.533Z,2.60
2024-03-12T13:04:58.745Z,2.45
2024-03-12T13:08:07.699Z,2.50
2024-03-12T13:11:18.793Z,2.33
2024-03-12T13:14:26.749Z,2.70
2024-03-12T13:17:33.782Z,2.50
2024-03-12T13:20:42.763Z,2.63
2024-03-12T13:23:51.841Z,3.00
2024-03-12T13:26:58.710Z,3.42
2024-03-12T13:30:04.780Z,3.33
2024-03-12T13:33:11.772Z,3.08
2024-03-12T13:36:18.838Z,3.17
2024-03-12T13:39:28.760Z,4.32
2024-03-12T13:42:35.766Z,3.72
2024-03-12T13:45:42.905Z,3.72
2024-03-12T13:48:50.836Z,3.50
2024-03-12T13:51:56.781Z,3.45
2024-03-12T13:55:04.781Z,4.00
2024-03-12T13:58:10.864Z,3.78
2024-03-12T14:01:20.795Z,4.00
2024-03-12T14:04:30.153Z,3.58
2024-03-12T14:07:39.739Z,3.78
2024-03-12T14:10:50.913Z,3.95
2024-03-12T14:13:58.820Z,4.20
2024-03-12T14:17:04.815Z,4.25
2024-03-12T14:20:19.768Z,4.00
2024-03-12T14:23:27.810Z,4.50
2024-03-12T14:26:35.765Z,4.15
2024-03-12T14:29:41.816Z,4.63
2024-03-12T14:32:48.907Z,4.22
2024-03-12T14:35:56.811Z,4.35
2024-03-12T14:39:03.868Z,3.67
2024-03-12T14:42:12.837Z,3.30
2024-03-12T14:45:21.804Z,3.90
2024-03-12T14:48:29.798Z,3.80
2024-03-12T14:51:35.839Z,3.47
2024-03-12T14:54:41.826Z,3.83
2024-03-12T14:57:50.806Z,3.33
2024-03-12T15:00:56.867Z,3.53
2024-03-12T15:04:06.867Z,3.50
2024-03-12T15:07:14.908Z,3.20
2024-03-12T15:10:23.890Z,3.40
2024-03-12T15:13:32.794Z,3.70
2024-03-12T15:16:39.873Z,2.83
2024-03-12T15:19:45.797Z,3.03
2024-03-12T15:22:53.833Z,2.92
2024-03-12T15:26:02.828Z,3.20
2024-03-12T15:29:11.826Z,2.75
2024-03-12T15:32:20.868Z,2.45
2024-03-12T15:35:28.840Z,2.20
2024-03-12T15:38:35.850Z,3.10
2024-03-12T15:41:44.918Z,2.35
2024-03-12T15:44:53.850Z,2.60
2024-03-12T15:48:02.058Z,2.38
2024-03-12T15:51:10.822Z,2.92
2024-03-12T15:54:18.856Z,2.70
2024-03-12T15:57:26.836Z,2.70
2024-03-12T16:00:38.939Z,3.10
2024-03-12T16:03:46.910Z,2.90
2024-03-12T16:06:53.929Z,2.50
2024-03-12T16:09:59.884Z,3.10
2024-03-12T16:13:05.907Z,3.28
2024-03-12T16:16:17.021Z,4.10
2024-03-12T16:19:28.840Z,4.45
2024-03-12T16:22:34.908Z,5.25
2024-03-12T16:25:40.913Z,4.95
2024-03-12T16:28:47.860Z,5.20
2024-03-12T16:31:59.867Z,5.75
2024-03-12T16:35:06.859Z,6.15
2024-03-12T16:38:13.860Z,6.43
2024-03-12T16:41:20.891Z,5.88
2024-03-12T16:44:26.868Z,6.28
2024-03-12T16:47:35.920Z,6.28
2024-03-12T16:50:43.889Z,6.18
2024-03-12T16:53:52.046Z,6.00
2024-03-12T16:56:58.980Z,6.18
2024-03-12T17:00:06.911Z,6.07
2024-03-12T17:03:15.932Z,6.25
2024-03-12T17:06:24.916Z,7.13
2024-03-12T17:09:30.952Z,6.22
2024-03-12T17:12:38.949Z,7.03
2024-03-12T17:15:54.967Z,7.20
2024-03-12T17:19:04.958Z,6.63
2024-03-12T17:22:11.062Z,6.75
2024-03-12T17:25:20.476Z,6.93
2024-03-12T17:28:28.118Z,6.90
2024-03-12T17:31:38.166Z,7.00
2024-03-12T17:34:46.940Z,7.85
2024-03-12T17:37:54.894Z,7.18
2024-03-12T17:41:05.961Z,7.45
2024-03-12T17:44:12.929Z,7.88
2024-03-12T17:47:19.970Z,8.07
2024-03-12T17:50:30.057Z,6.82
2024-03-12T17:53:37.459Z,7.57
2024-03-12T17:57:27.346Z,7.38
2024-03-12T18:00:24.077Z,7.50
2024-03-12T18:03:32.922Z,7.95
2024-03-12T18:06:43.049Z,7.55
2024-03-12T18:09:50.034Z,7.10
2024-03-12T18:12:56.131Z,6.88
2024-03-12T18:16:04.025Z,7.30
2024-03-12T18:19:11.000Z,7.43
2024-03-12T18:22:21.090Z,7.15
2024-03-12T18:25:29.982Z,6.75
2024-03-12T18:28:38.000Z,6.88
2024-03-12T18:31:44.957Z,5.97
2024-03-12T18:34:52.994Z,6.50
2024-03-12T18:38:02.089Z,5.68
2024-03-12T18:41:07.995Z,5.57
2024-03-12T18:44:14.996Z,5.50
2024-03-12T18:47:21.974Z,5.65
2024-03-12T18:50:30.083Z,5.18
2024-03-12T18:53:39.978Z,5.55
2024-03-12T18:56:47.025Z,5.28
2024-03-12T18:59:59.079Z,4.90
2024-03-12T19:03:05.959Z,5.22
2024-03-12T19:06:18.883Z,5.45
2024-03-12T19:09:33.996Z,5.68
2024-03-12T19:12:39.998Z,5.07
2024-03-12T19:15:52.016Z,5.18
2024-03-12T19:18:54.991Z,4.50
2024-03-12T19:21:56.032Z,4.80
2024-03-12T19:25:05.069Z,4.53
2024-03-12T19:28:13.024Z,5.00
2024-03-12T19:31:19.025Z,4.68
2024-03-12T19:34:27.074Z,4.63
2024-03-12T19:37:34.015Z,5.25
2024-03-12T19:40:43.967Z,4.93
2024-03-12T19:43:53.981Z,5.03
2024-03-12T19:47:01.030Z,5.00
2024-03-12T19:50:08.000Z,5.03
2024-03-12T19:53:15.122Z,4.78
2024-03-12T19:56:24.120Z,5.18
2024-03-12T19:59:30.005Z,5.38
2024-03-12T20:02:36.999Z,5.13
2024-03-12T20:05:44.021Z,5.00
2024-03-12T20:08:50.101Z,4.82
2024-03-12T20:11:57.089Z,4.95
2024-03-12T20:15:05.084Z,4.53
2024-03-12T20:18:12.061Z,5.07
2024-03-12T20:21:21.048Z,4.68
2024-03-12T20:24:21.962Z,4.50
2024-03-12T20:27:26.068Z,4.68
2024-03-12T20:30:35.132Z,4.90
2024-03-12T20:33:42.103Z,4.55
2024-03-12T20:36:54.089Z,4.40
2024-03-12T20:40:00.091Z,4.88
2024-03-12T20:43:09.151Z,4.25
2024-03-12T20:46:17.100Z,4.32
2024-03-12T20:49:24.060Z,4.80
2024-03-12T20:52:30.047Z,3.40
2024-03-12T20:55:37.097Z,4.15
2024-03-12T20:58:45.059Z,3.88
2024-03-12T21:01:53.247Z,4.35
2024-03-12T21:05:00.074Z,4.30
2024-03-12T21:08:07.062Z,4.00
2024-03-12T21:11:14.059Z,3.90
2024-03-12T21:14:23.086Z,3.42
2024-03-12T21:17:33.994Z,3.33
2024-03-12T21:20:42.063Z,3.38
2024-03-12T21:23:48.053Z,2.83
2024-03-12T21:26:55.067Z,3.15
2024-03-12T21:30:04.137Z,3.22
2024-03-12T21:33:13.108Z,3.40
2024-03-12T21:36:23.104Z,3.35
2024-03-12T21:39:31.086Z,2.92
2024-03-12T21:42:31.007Z,3.38
2024-03-12T21:45:35.135Z,3.60
2024-03-12T21:48:42.114Z,3.25
2024-03-12T21:51:49.142Z,3.58
2024-03-12T21:54:56.106Z,3.47
2024-03-12T21:58:03.095Z,3.00
2024-03-12T22:01:12.209Z,3.13
2024-03-12T22:04:19.145Z,3.10
2024-03-12T22:07:28.175Z,2.88
2024-03-12T22:10:34.115Z,3.20
2024-03-12T22:13:45.191Z,3.13
2024-03-12T22:16:55.098Z,2.92
2024-03-12T22:20:02.217Z,3.20
2024-03-12T22:23:08.101Z,3.60
2024-03-12T22:26:16.094Z,3.55
2024-03-12T22:29:25.112Z,3.20
2024-03-12T22:32:31.162Z,3.15
2024-03-12T22:35:31.122Z,3.75
2024-03-12T22:38:38.118Z,3.35
2024-03-12T22:41:45.116Z,3.90
2024-03-12T22:44:53.107Z,2.80
2024-03-12T22:48:06.293Z,3.40
2024-03-12T22:51:16.122Z,3.00
2024-03-12T22:54:23.132Z,2.92
2024-03-12T22:57:31.171Z,2.80
2024-03-12T23:00:54.149Z,3.85
2024-03-12T23:04:05.271Z,3.92
2024-03-12T23:07:14.160Z,3.28
2024-03-12T23:10:21.237Z,3.15
2024-03-12T23:13:28.213Z,2.33
2024-03-12T23:16:36.239Z,2.42
2024-03-12T23:19:49.174Z,2.10
2024-03-12T23:22:56.158Z,2.00
2024-03-12T23:26:03.541Z,2.30
2024-03-12T23:29:10.172Z,2.05
2024-03-12T23:32:21.150Z,2.15
2024-03-12T23:35:30.146Z,1.85
2024-03-12T23:38:37.176Z,1.60
2024-03-12T23:41:45.182Z,2.17
2024-03-12T23:44:51.208Z,2.10
2024-03-12T23:47:59.238Z,2.00
2024-03-12T23:51:07.343Z,2.00
2024-03-12T23:54:15.179Z,2.00
2024-03-12T23:57:25.196Z,2.10
